createdAt,value
2019-05-05T00:00:01.448Z,274.62
2019-05-05T00:00:06.452Z,274.62
2019-05-05T00:00:11.453Z,274.14
2019-05-05T00:00:16.451Z,274.14
2019-05-05T00:00:21.453Z,273.72
2019-05-05T00:00:26.455Z,273.72
2019-05-05T00:00:31.456Z,269.17
2019-05-05T00:00:36.456Z,269.17
2019-05-05T00:00:41.458Z,269.26
2019-05-05T00:00:46.457Z,269.26
2019-05-05T00:00:51.459Z,269.33
2019-05-05T00:00:56.461Z,269.33
2019-05-05T00:01:01.460Z,269.40
2019-05-05T00:01:06.462Z,269.40
2019-05-05T00:01:11.463Z,269.46
2019-05-05T00:01:16.464Z,269.46
2019-05-05T00:01:21.465Z,269.52
2019-05-05T00:01:26.466Z,269.52
2019-05-05T00:01:31.468Z,263.75
2019-05-05T00:01:36.468Z,263.75
2019-05-05T00:01:41.661Z,264.42
2019-05-05T00:01:46.470Z,264.42
2019-05-05T00:01:51.470Z,269.36
2019-05-05T00:01:56.472Z,269.36
2019-05-05T00:02:01.666Z,269.43
2019-05-05T00:02:06.475Z,269.43
2019-05-05T00:02:11.476Z,263.30
2019-05-05T00:02:16.476Z,263.30
2019-05-05T00:02:21.478Z,264.06
2019-05-05T00:02:26.478Z,264.06
2019-05-05T00:02:31.480Z,264.73
2019-05-05T00:02:36.480Z,264.73
2019-05-05T00:02:41.481Z,265.32
2019-05-05T00:02:46.480Z,265.32
2019-05-05T00:02:51.483Z,265.83
2019-05-05T00:02:56.483Z,265.83
2019-05-05T00:03:01.485Z,266.29
2019-05-05T00:03:06.633Z,266.29
2019-05-05T00:03:11.489Z,266.69
2019-05-05T00:03:16.486Z,266.69
2019-05-05T00:03:21.489Z,267.04
2019-05-05T00:03:26.489Z,267.04
2019-05-05T00:03:31.488Z,267.36
2019-05-05T00:03:36.492Z,267.36
2019-05-05T00:03:41.493Z,271.99
2019-05-05T00:03:46.492Z,271.99
2019-05-05T00:03:51.497Z,271.77
2019-05-05T00:03:56.657Z,271.77
2019-05-05T00:04:01.837Z,271.58
2019-05-05T00:04:06.496Z,271.58
2019-05-05T00:04:11.497Z,271.41
2019-05-05T00:04:16.498Z,271.41
2019-05-05T00:04:21.500Z,271.26
2019-05-05T00:04:26.652Z,271.26
2019-05-05T00:04:31.502Z,271.13
2019-05-05T00:04:36.501Z,271.13
2019-05-05T00:04:41.503Z,265.17
2019-05-05T00:04:46.518Z,265.17
2019-05-05T00:04:51.505Z,265.70
2019-05-05T00:04:56.507Z,265.70
2019-05-05T00:05:01.508Z,270.62
2019-05-05T00:05:06.508Z,270.62
2019-05-05T00:05:11.509Z,270.55
2019-05-05T00:05:16.510Z,270.55
2019-05-05T00:05:21.514Z,270.49
2019-05-05T00:05:26.511Z,270.49
2019-05-05T00:05:31.512Z,270.44
2019-05-05T00:05:36.514Z,270.44
2019-05-05T00:05:41.514Z,270.39
2019-05-05T00:05:46.521Z,270.39
2019-05-05T00:05:51.517Z,270.35
2019-05-05T00:05:56.518Z,270.35
2019-05-05T00:06:01.517Z,270.31
2019-05-05T00:06:06.951Z,270.31
2019-05-05T00:06:11.522Z,270.28
2019-05-05T00:06:16.522Z,270.28
2019-05-05T00:06:21.523Z,270.25
2019-05-05T00:06:26.525Z,270.25
2019-05-05T00:06:31.524Z,270.22
2019-05-05T00:06:36.526Z,270.22
2019-05-05T00:06:41.529Z,264.34
2019-05-05T00:06:46.530Z,264.34
2019-05-05T00:06:51.528Z,264.96
2019-05-05T00:06:56.528Z,264.96
2019-05-05T00:07:01.530Z,265.50
2019-05-05T00:07:06.530Z,265.50
2019-05-05T00:07:11.532Z,270.37
2019-05-05T00:07:16.536Z,270.37
2019-05-05T00:07:21.533Z,270.33
2019-05-05T00:07:26.535Z,270.33
2019-05-05T00:07:31.538Z,264.14
2019-05-05T00:07:36.537Z,264.14
2019-05-05T00:07:41.538Z,264.81
2019-05-05T00:07:46.538Z,264.81
2019-05-05T00:07:51.540Z,265.39
2019-05-05T00:07:56.541Z,265.39
2019-05-05T00:08:01.543Z,259.36
2019-05-05T00:08:06.546Z,259.36
2019-05-05T00:08:11.548Z,260.59
2019-05-05T00:08:16.547Z,260.59
2019-05-05T00:08:21.549Z,266.17
2019-05-05T00:08:26.548Z,266.17
2019-05-05T00:08:31.702Z,266.62
2019-05-05T00:08:36.549Z,266.62
2019-05-05T00:08:41.549Z,271.74
2019-05-05T00:08:46.552Z,271.74
2019-05-05T00:08:51.552Z,271.54
2019-05-05T00:08:56.553Z,271.54
2019-05-05T00:09:01.554Z,271.36
2019-05-05T00:09:06.557Z,271.36
2019-05-05T00:09:11.554Z,275.98
2019-05-05T00:09:16.559Z,275.98
2019-05-05T00:09:21.556Z,275.30
2019-05-05T00:09:26.559Z,275.30
2019-05-05T00:09:31.559Z,279.54
2019-05-05T00:09:36.560Z,279.54
2019-05-05T00:09:41.577Z,278.46
2019-05-05T00:09:46.576Z,278.46
2019-05-05T00:09:52.388Z,271.64
2019-05-05T00:09:56.579Z,271.64
2019-05-05T00:10:01.579Z,276.50
2019-05-05T00:10:06.579Z,276.50
2019-05-05T00:10:11.580Z,275.72
2019-05-05T00:10:16.580Z,275.72
2019-05-05T00:10:21.792Z,275.04
2019-05-05T00:10:26.586Z,275.04
2019-05-05T00:10:31.585Z,274.46
2019-05-05T00:10:36.585Z,274.46
2019-05-05T00:10:41.585Z,273.95
2019-05-05T00:10:46.586Z,273.95
2019-05-05T00:10:51.588Z,278.30
2019-05-05T00:10:56.590Z,278.30
2019-05-05T00:11:01.943Z,277.36
2019-05-05T00:11:06.592Z,277.36
2019-05-05T00:11:11.592Z,276.53
2019-05-05T00:11:16.599Z,276.53
2019-05-05T00:11:21.597Z,269.91
2019-05-05T00:11:26.594Z,269.91
2019-05-05T00:11:31.596Z,269.92
2019-05-05T00:11:36.598Z,269.92
2019-05-05T00:11:41.597Z,269.93
2019-05-05T00:11:46.600Z,269.93
2019-05-05T00:11:51.602Z,269.94
2019-05-05T00:11:56.602Z,269.94
2019-05-05T00:12:01.600Z,274.64
2019-05-05T00:12:06.603Z,274.64
2019-05-05T00:12:11.606Z,267.92
2019-05-05T00:12:16.604Z,267.92
2019-05-05T00:12:21.827Z,268.17
2019-05-05T00:12:26.607Z,268.17
2019-05-05T00:12:31.607Z,268.39
2019-05-05T00:12:36.611Z,268.39
2019-05-05T00:12:42.236Z,268.57
2019-05-05T00:12:46.611Z,268.57
2019-05-05T00:12:51.611Z,268.74
2019-05-05T00:12:56.611Z,268.74
2019-05-05T00:13:02.294Z,268.88
2019-05-05T00:13:06.615Z,268.88
2019-05-05T00:13:11.615Z,262.66
2019-05-05T00:13:16.617Z,262.66
2019-05-05T00:13:21.618Z,263.51
2019-05-05T00:13:26.618Z,263.51
2019-05-05T00:13:31.634Z,268.85
2019-05-05T00:13:36.620Z,268.85
2019-05-05T00:13:41.621Z,268.99
2019-05-05T00:13:46.621Z,268.99
2019-05-05T00:13:51.626Z,269.10
2019-05-05T00:13:56.624Z,269.10
2019-05-05T00:14:01.625Z,269.20
2019-05-05T00:14:06.941Z,269.20
2019-05-05T00:14:11.629Z,269.29
2019-05-05T00:14:16.627Z,269.29
2019-05-05T00:14:21.628Z,269.37
2019-05-05T00:14:26.633Z,269.37
2019-05-05T00:14:31.633Z,269.44
2019-05-05T00:14:36.632Z,269.44
2019-05-05T00:14:41.631Z,269.50
2019-05-05T00:14:46.634Z,269.50
2019-05-05T00:14:51.635Z,269.55
2019-05-05T00:14:56.636Z,269.55
2019-05-05T00:15:01.638Z,269.60
2019-05-05T00:15:06.638Z,269.60
2019-05-05T00:15:11.639Z,269.64
2019-05-05T00:15:16.640Z,269.64
2019-05-05T00:15:21.647Z,269.68
2019-05-05T00:15:26.642Z,269.68
2019-05-05T00:15:31.641Z,269.71
2019-05-05T00:15:36.646Z,269.71
2019-05-05T00:15:41.645Z,269.74
2019-05-05T00:15:46.646Z,269.74
2019-05-05T00:15:51.644Z,269.77
2019-05-05T00:15:56.647Z,269.77
2019-05-05T00:16:01.646Z,274.10
2019-05-05T00:16:06.781Z,274.10
2019-05-05T00:16:11.649Z,273.67
2019-05-05T00:16:16.651Z,273.67
2019-05-05T00:16:21.652Z,273.28
2019-05-05T00:16:26.666Z,273.28
2019-05-05T00:16:31.652Z,277.37
2019-05-05T00:16:36.655Z,277.37
2019-05-05T00:16:41.656Z,271.01
2019-05-05T00:16:46.657Z,271.01
2019-05-05T00:16:51.657Z,270.90
2019-05-05T00:16:56.659Z,270.90
2019-05-05T00:17:01.660Z,270.80
2019-05-05T00:17:06.663Z,270.80
2019-05-05T00:17:11.671Z,270.71
2019-05-05T00:17:16.663Z,270.71
2019-05-05T00:17:21.664Z,270.63
2019-05-05T00:17:26.665Z,270.63
2019-05-05T00:17:31.665Z,270.56
2019-05-05T00:17:36.666Z,270.56
2019-05-05T00:17:41.666Z,270.50
2019-05-05T00:17:46.667Z,270.50
2019-05-05T00:17:51.670Z,270.45
2019-05-05T00:17:56.669Z,270.45
2019-05-05T00:18:01.675Z,270.40
2019-05-05T00:18:06.674Z,270.40
2019-05-05T00:18:11.675Z,270.36
2019-05-05T00:18:16.674Z,270.36
2019-05-05T00:18:21.674Z,274.70
2019-05-05T00:18:26.677Z,274.70
2019-05-05T00:18:31.676Z,274.20
2019-05-05T00:18:36.902Z,274.20
2019-05-05T00:18:41.678Z,267.99
2019-05-05T00:18:46.680Z,267.99
2019-05-05T00:19:02.208Z,270.00
2019-05-05T00:19:07.012Z,270.00
2019-05-05T00:19:12.016Z,270.00
2019-05-05T00:19:17.019Z,270.00
2019-05-05T00:19:22.015Z,270.00
2019-05-05T00:19:27.015Z,270.00
2019-05-05T00:19:32.147Z,270.00
2019-05-05T00:19:37.017Z,270.00
2019-05-05T00:19:42.018Z,270.00
2019-05-05T00:19:47.018Z,270.00
2019-05-05T00:19:52.019Z,270.00
2019-05-05T00:19:57.022Z,270.00
2019-05-05T00:20:02.030Z,270.00
2019-05-05T00:20:07.024Z,270.00
2019-05-05T00:20:12.023Z,270.00
2019-05-05T00:20:17.026Z,270.00
2019-05-05T00:20:22.025Z,270.00
2019-05-05T00:20:27.026Z,270.00
2019-05-05T00:20:32.029Z,270.00
2019-05-05T00:20:37.029Z,270.00
2019-05-05T00:20:42.029Z,270.00
2019-05-05T00:20:47.437Z,270.00
2019-05-05T00:21:02.362Z,270.00
2019-05-05T00:21:07.363Z,270.00
2019-05-05T00:21:12.364Z,293.75
2019-05-05T00:21:17.367Z,293.75
2019-05-05T00:21:22.367Z,301.96
2019-05-05T00:21:27.368Z,301.96
2019-05-05T00:21:32.369Z,305.92
2019-05-05T00:21:37.371Z,305.92
2019-05-05T00:21:42.371Z,297.03
2019-05-05T00:21:47.372Z,297.03
2019-05-05T00:21:52.374Z,291.00
2019-05-05T00:21:57.374Z,291.00
2019-05-05T00:22:02.784Z,286.76
2019-05-05T00:22:07.377Z,286.76
2019-05-05T00:22:12.380Z,283.66
2019-05-05T00:22:17.379Z,283.66
2019-05-05T00:22:22.380Z,288.92
2019-05-05T00:22:27.380Z,288.92
2019-05-05T00:22:32.965Z,285.85
2019-05-05T00:22:37.383Z,285.85
2019-05-05T00:22:42.383Z,283.41
2019-05-05T00:22:47.383Z,283.41
2019-05-05T00:22:52.388Z,281.45
2019-05-05T00:22:57.385Z,281.45
2019-05-05T00:23:02.387Z,279.84
2019-05-05T00:23:07.389Z,279.84
2019-05-05T00:23:12.390Z,278.50
2019-05-05T00:23:17.389Z,278.50
2019-05-05T00:23:22.390Z,277.39
2019-05-05T00:23:27.393Z,277.39
2019-05-05T00:23:32.392Z,276.45
2019-05-05T00:23:37.395Z,276.45
2019-05-05T00:23:42.394Z,275.65
2019-05-05T00:23:47.399Z,275.65
2019-05-05T00:23:52.397Z,280.17
2019-05-05T00:23:57.397Z,280.17
2019-05-05T00:24:02.399Z,278.94
2019-05-05T00:24:07.400Z,278.94
2019-05-05T00:24:12.401Z,277.88
2019-05-05T00:24:17.401Z,277.88
2019-05-05T00:24:22.403Z,276.96
2019-05-05T00:24:27.404Z,276.96
2019-05-05T00:24:32.638Z,276.16
2019-05-05T00:24:37.405Z,276.16
2019-05-05T00:24:42.408Z,275.46
2019-05-05T00:24:47.409Z,275.46
2019-05-05T00:24:52.410Z,274.85
2019-05-05T00:24:57.410Z,274.85
2019-05-05T00:25:02.556Z,274.31
2019-05-05T00:25:07.411Z,274.31
2019-05-05T00:25:12.413Z,273.84
2019-05-05T00:25:17.413Z,273.84
2019-05-05T00:25:22.414Z,273.42
2019-05-05T00:25:27.415Z,273.42
2019-05-05T00:25:32.416Z,277.63
2019-05-05T00:25:37.420Z,277.63
2019-05-05T00:25:42.417Z,276.79
2019-05-05T00:25:47.420Z,276.79
2019-05-05T00:25:52.419Z,276.06
2019-05-05T00:25:57.422Z,276.06
2019-05-05T00:26:02.578Z,275.41
2019-05-05T00:26:07.843Z,275.41
2019-05-05T00:26:12.422Z,274.83
2019-05-05T00:26:17.425Z,274.83
2019-05-05T00:26:22.428Z,274.32
2019-05-05T00:26:27.428Z,274.32
2019-05-05T00:26:32.429Z,278.35
2019-05-05T00:26:37.429Z,278.35
2019-05-05T00:26:42.428Z,277.46
2019-05-05T00:26:47.429Z,277.46
2019-05-05T00:26:52.431Z,276.67
2019-05-05T00:26:57.432Z,276.67
2019-05-05T00:27:02.434Z,275.96
2019-05-05T00:27:07.436Z,275.96
2019-05-05T00:27:12.436Z,275.34
2019-05-05T00:27:17.436Z,275.34
2019-05-05T00:27:22.441Z,274.78
2019-05-05T00:27:27.439Z,274.78
2019-05-05T00:27:32.439Z,274.28
2019-05-05T00:27:37.440Z,274.28
2019-05-05T00:27:42.442Z,273.84
2019-05-05T00:27:47.444Z,273.84
2019-05-05T00:27:52.444Z,273.44
2019-05-05T00:27:57.442Z,273.44
2019-05-05T00:28:02.445Z,273.08
2019-05-05T00:28:07.447Z,273.08
2019-05-05T00:28:12.447Z,277.12
2019-05-05T00:28:17.447Z,277.12
2019-05-05T00:28:22.449Z,276.38
2019-05-05T00:28:27.639Z,276.38
2019-05-05T00:28:32.451Z,270.19
2019-05-05T00:28:37.451Z,270.19
2019-05-05T00:28:42.455Z,270.17
2019-05-05T00:28:47.453Z,270.17
2019-05-05T00:28:52.456Z,270.15
2019-05-05T00:28:57.456Z,270.15
2019-05-05T00:29:02.458Z,270.13
2019-05-05T00:29:07.459Z,270.13
2019-05-05T00:29:12.459Z,270.12
2019-05-05T00:29:17.458Z,270.12
2019-05-05T00:29:22.460Z,270.10
2019-05-05T00:29:27.461Z,270.10
2019-05-05T00:29:32.784Z,270.09
2019-05-05T00:29:37.462Z,270.09
2019-05-05T00:29:42.463Z,270.08
2019-05-05T00:29:47.465Z,270.08
2019-05-05T00:29:52.465Z,270.08
2019-05-05T00:29:57.468Z,270.08
2019-05-05T00:30:02.468Z,274.42
2019-05-05T00:30:07.468Z,274.42
2019-05-05T00:30:12.469Z,273.95
2019-05-05T00:30:17.472Z,273.95
2019-05-05T00:30:22.471Z,273.53
2019-05-05T00:30:27.472Z,273.53
2019-05-05T00:30:32.473Z,273.16
2019-05-05T00:30:37.705Z,273.16
2019-05-05T00:30:42.475Z,272.83
2019-05-05T00:30:47.476Z,272.83
2019-05-05T00:30:52.477Z,272.54
2019-05-05T00:30:57.478Z,272.54
2019-05-05T00:31:02.480Z,272.27
2019-05-05T00:31:07.982Z,272.27
2019-05-05T00:31:12.480Z,272.04
2019-05-05T00:31:17.482Z,272.04
2019-05-05T00:31:22.482Z,271.83
2019-05-05T00:31:27.483Z,271.83
2019-05-05T00:31:32.484Z,271.64
2019-05-05T00:31:37.486Z,271.64
2019-05-05T00:31:43.542Z,271.47
2019-05-05T00:31:47.489Z,271.47
2019-05-05T00:31:52.488Z,271.32
2019-05-05T00:31:57.491Z,271.32
2019-05-05T00:32:02.490Z,271.19
2019-05-05T00:32:07.495Z,271.19
2019-05-05T00:32:12.495Z,271.07
2019-05-05T00:32:17.497Z,271.07
2019-05-05T00:32:22.493Z,270.96
2019-05-05T00:32:27.496Z,270.96
2019-05-05T00:32:32.496Z,270.86
2019-05-05T00:32:37.555Z,270.86
2019-05-05T00:32:42.499Z,270.77
2019-05-05T00:32:47.499Z,270.77
2019-05-05T00:32:52.500Z,270.69
2019-05-05T00:32:57.500Z,270.69
2019-05-05T00:33:02.642Z,270.62
2019-05-05T00:33:07.508Z,270.62
2019-05-05T00:33:12.505Z,270.56
2019-05-05T00:33:17.504Z,270.56
2019-05-05T00:33:22.508Z,274.72
2019-05-05T00:33:27.507Z,274.72
2019-05-05T00:33:32.508Z,274.23
2019-05-05T00:33:37.510Z,274.23
2019-05-05T00:33:42.510Z,273.80
2019-05-05T00:33:47.510Z,273.80
2019-05-05T00:33:52.518Z,273.41
2019-05-05T00:33:57.516Z,273.41
2019-05-05T00:34:02.518Z,273.06
2019-05-05T00:34:07.576Z,273.06
2019-05-05T00:34:12.515Z,277.07
2019-05-05T00:34:17.516Z,277.07
2019-05-05T00:34:22.517Z,276.34
2019-05-05T00:34:27.520Z,276.34
2019-05-05T00:34:32.520Z,275.68
2019-05-05T00:34:37.521Z,275.68
2019-05-05T00:34:42.522Z,279.52
2019-05-05T00:34:47.522Z,279.52
2019-05-05T00:34:52.525Z,278.52
2019-05-05T00:34:57.524Z,278.52
2019-05-05T00:35:02.525Z,282.16
2019-05-05T00:35:07.527Z,282.16
2019-05-05T00:35:12.528Z,280.88
2019-05-05T00:35:17.528Z,280.88
2019-05-05T00:35:22.528Z,279.73
2019-05-05T00:35:27.534Z,279.73
2019-05-05T00:35:33.526Z,283.27
2019-05-05T00:35:37.532Z,283.27
2019-05-05T00:35:42.534Z,281.87
2019-05-05T00:35:47.534Z,281.87
2019-05-05T00:35:52.535Z,285.24
2019-05-05T00:35:57.536Z,285.24
2019-05-05T00:36:02.536Z,283.63
2019-05-05T00:36:07.544Z,283.63
2019-05-05T00:36:12.546Z,282.19
2019-05-05T00:36:17.545Z,282.19
2019-05-05T00:36:22.545Z,280.91
2019-05-05T00:36:27.548Z,280.91
2019-05-05T00:36:32.548Z,279.76
2019-05-05T00:36:37.550Z,279.76
2019-05-05T00:36:42.549Z,278.74
2019-05-05T00:36:47.550Z,278.74
2019-05-05T00:36:52.552Z,282.35
2019-05-05T00:36:57.553Z,282.35
2019-05-05T00:37:02.552Z,285.68
2019-05-05T00:37:07.727Z,285.68
2019-05-05T00:37:12.555Z,286.41
2019-05-05T00:37:17.555Z,286.41
2019-05-05T00:37:22.556Z,284.68
2019-05-05T00:37:27.558Z,284.68
2019-05-05T00:37:32.558Z,283.14
2019-05-05T00:37:37.560Z,283.14
2019-05-05T00:37:42.560Z,286.38
2019-05-05T00:37:47.562Z,286.38
2019-05-05T00:37:52.563Z,289.33
2019-05-05T00:37:57.564Z,289.33
2019-05-05T00:38:02.857Z,287.30
2019-05-05T00:38:07.566Z,287.30
2019-05-05T00:38:12.608Z,285.47
2019-05-05T00:38:17.567Z,285.47
2019-05-05T00:38:22.571Z,288.51
2019-05-05T00:38:27.646Z,288.51
2019-05-05T00:38:32.576Z,286.56
2019-05-05T00:38:37.708Z,286.56
2019-05-05T00:38:42.572Z,284.81
2019-05-05T00:38:47.577Z,284.81
2019-05-05T00:38:52.577Z,287.91
2019-05-05T00:38:57.577Z,287.91
2019-05-05T00:39:02.577Z,286.02
2019-05-05T00:39:07.586Z,286.02
2019-05-05T00:39:12.719Z,289.02
2019-05-05T00:39:17.579Z,289.02
2019-05-05T00:39:22.582Z,291.73
2019-05-05T00:39:27.581Z,291.73
2019-05-05T00:39:32.582Z,294.17
2019-05-05T00:39:37.583Z,294.17
2019-05-05T00:39:42.585Z,296.37
2019-05-05T00:39:47.586Z,296.37
2019-05-05T00:39:52.585Z,293.62
2019-05-05T00:39:57.588Z,293.62
2019-05-05T00:40:02.589Z,295.87
2019-05-05T00:40:07.589Z,295.87
2019-05-05T00:40:12.591Z,293.17
2019-05-05T00:40:17.591Z,293.17
2019-05-05T00:40:22.592Z,295.47
2019-05-05T00:40:27.593Z,295.47
2019-05-05T00:40:32.693Z,292.81
2019-05-05T00:40:37.596Z,292.81
2019-05-05T00:40:42.596Z,290.41
2019-05-05T00:40:47.598Z,290.41
2019-05-05T00:40:52.597Z,288.25
2019-05-05T00:40:58.084Z,288.25
2019-05-05T00:41:02.853Z,291.04
2019-05-05T00:41:07.604Z,291.04
2019-05-05T00:41:12.602Z,288.82
2019-05-05T00:41:17.603Z,288.82
2019-05-05T00:41:22.605Z,286.83
2019-05-05T00:41:27.604Z,286.83
2019-05-05T00:41:32.608Z,285.05
2019-05-05T00:41:37.611Z,285.05
2019-05-05T00:41:42.608Z,288.14
2019-05-05T00:41:47.610Z,288.14
2019-05-05T00:41:52.608Z,286.22
2019-05-05T00:41:57.611Z,286.22
2019-05-05T00:42:02.612Z,289.20
2019-05-05T00:42:07.613Z,289.20
2019-05-05T00:42:12.621Z,291.90
2019-05-05T00:42:17.615Z,291.90
2019-05-05T00:42:22.615Z,285.05
2019-05-05T00:42:27.616Z,285.05
2019-05-05T00:42:33.218Z,277.69
2019-05-05T00:42:37.617Z,277.69
2019-05-05T00:42:42.620Z,282.16
2019-05-05T00:42:47.620Z,282.16
2019-05-05T00:42:52.620Z,286.11
2019-05-05T00:42:57.622Z,286.11
2019-05-05T00:43:02.621Z,284.13
2019-05-05T00:43:07.626Z,284.13
2019-05-05T00:43:12.624Z,282.43
2019-05-05T00:43:17.625Z,282.43
2019-05-05T00:43:22.626Z,286.17
2019-05-05T00:43:27.628Z,286.17
2019-05-05T00:43:32.628Z,284.27
2019-05-05T00:43:37.809Z,284.27
2019-05-05T00:43:42.631Z,287.74
2019-05-05T00:43:47.632Z,287.74
2019-05-05T00:43:52.632Z,285.70
2019-05-05T00:43:57.640Z,285.70
2019-05-05T00:44:03.021Z,283.91
2019-05-05T00:44:07.636Z,283.91
2019-05-05T00:44:12.640Z,287.33
2019-05-05T00:44:17.638Z,287.33
2019-05-05T00:44:22.638Z,290.39
2019-05-05T00:44:27.641Z,290.39
2019-05-05T00:44:32.640Z,293.12
2019-05-05T00:44:37.641Z,293.12
2019-05-05T00:44:42.642Z,285.87
2019-05-05T00:44:47.643Z,285.87
2019-05-05T00:44:52.645Z,289.35
2019-05-05T00:44:57.646Z,289.35
2019-05-05T00:45:02.646Z,287.02
2019-05-05T00:45:07.772Z,287.02
2019-05-05T00:45:12.651Z,290.28
2019-05-05T00:45:17.649Z,290.28
2019-05-05T00:45:22.649Z,293.16
2019-05-05T00:45:27.650Z,293.16
2019-05-05T00:45:32.651Z,295.68
2019-05-05T00:45:37.653Z,295.68
2019-05-05T00:45:42.655Z,297.90
2019-05-05T00:45:47.655Z,297.90
2019-05-05T00:45:52.655Z,299.85
2019-05-05T00:45:57.656Z,299.85
2019-05-05T00:46:02.656Z,301.56
2019-05-05T00:46:07.657Z,301.56
2019-05-05T00:46:12.660Z,303.06
2019-05-05T00:46:17.661Z,303.06
2019-05-05T00:46:22.758Z,299.52
2019-05-05T00:46:27.662Z,299.52
2019-05-05T00:46:32.833Z,301.23
2019-05-05T00:46:37.665Z,301.23
2019-05-05T00:46:42.664Z,302.75
2019-05-05T00:46:47.665Z,302.75
2019-05-05T00:46:52.669Z,304.09
2019-05-05T00:46:57.670Z,304.09
2019-05-05T00:47:02.671Z,305.27
2019-05-05T00:47:07.669Z,305.27
2019-05-05T00:47:12.707Z,306.32
2019-05-05T00:47:17.672Z,306.32
2019-05-05T00:47:22.673Z,302.60
2019-05-05T00:47:27.673Z,302.60
2019-05-05T00:47:32.675Z,303.94
2019-05-05T00:47:37.682Z,303.94
2019-05-05T00:47:42.677Z,305.13
2019-05-05T00:47:47.680Z,305.13
2019-05-05T00:47:52.679Z,306.18
2019-05-05T00:47:57.680Z,306.18
2019-05-05T00:48:02.682Z,302.51
2019-05-05T00:48:07.681Z,302.51
2019-05-05T00:48:12.848Z,303.85
2019-05-05T00:48:17.685Z,303.85
2019-05-05T00:48:22.684Z,300.37
2019-05-05T00:48:27.686Z,300.37
2019-05-05T00:48:32.686Z,297.20
2019-05-05T00:48:37.688Z,297.20
2019-05-05T00:48:42.687Z,294.33
2019-05-05T00:48:47.692Z,294.33
2019-05-05T00:48:52.692Z,296.54
2019-05-05T00:48:57.693Z,296.54
2019-05-05T00:49:02.694Z,298.51
2019-05-05T00:49:07.695Z,298.51
2019-05-05T00:49:12.694Z,300.27
2019-05-05T00:49:17.695Z,300.27
2019-05-05T00:49:22.697Z,297.13
2019-05-05T00:49:27.695Z,297.13
2019-05-05T00:49:33.219Z,294.28
2019-05-05T00:49:37.698Z,294.28
2019-05-05T00:49:42.700Z,296.49
2019-05-05T00:49:47.702Z,296.49
2019-05-05T00:49:52.700Z,293.70
2019-05-05T00:49:57.759Z,293.70
2019-05-05T00:50:02.702Z,291.20
2019-05-05T00:50:07.706Z,291.20
2019-05-05T00:50:12.707Z,293.71
2019-05-05T00:50:17.706Z,293.71
2019-05-05T00:50:22.709Z,291.21
2019-05-05T00:50:27.713Z,291.21
2019-05-05T00:50:32.709Z,293.72
2019-05-05T00:50:37.712Z,293.72
2019-05-05T00:50:42.710Z,291.22
2019-05-05T00:50:47.712Z,291.22
2019-05-05T00:50:52.715Z,293.73
2019-05-05T00:50:57.714Z,293.73
2019-05-05T00:51:02.716Z,291.22
2019-05-05T00:51:07.715Z,291.22
2019-05-05T00:51:12.718Z,288.98
2019-05-05T00:51:17.721Z,288.98
2019-05-05T00:51:22.719Z,286.96
2019-05-05T00:51:27.720Z,286.96
2019-05-05T00:51:33.087Z,289.88
2019-05-05T00:51:37.722Z,289.88
2019-05-05T00:51:42.725Z,292.52
2019-05-05T00:51:47.724Z,292.52
2019-05-05T00:51:52.728Z,290.14
2019-05-05T00:51:57.724Z,290.14
2019-05-05T00:52:13.022Z,202.50
2019-05-05T00:52:18.025Z,202.50
2019-05-05T00:52:23.027Z,238.26
2019-05-05T00:52:28.027Z,238.26
2019-05-05T00:52:33.205Z,251.29
2019-05-05T00:52:38.029Z,251.29
2019-05-05T00:52:43.029Z,257.30
2019-05-05T00:52:48.029Z,257.30
2019-05-05T00:52:53.032Z,260.67
2019-05-05T00:52:58.034Z,260.67
2019-05-05T00:53:03.033Z,262.80
2019-05-05T00:53:08.036Z,262.80
2019-05-05T00:53:13.038Z,272.69
2019-05-05T00:53:18.038Z,272.69
2019-05-05T00:53:23.039Z,272.17
2019-05-05T00:53:28.111Z,272.17
2019-05-05T00:53:33.038Z,279.40
2019-05-05T00:53:38.041Z,279.40
2019-05-05T00:53:43.042Z,285.25
2019-05-05T00:53:48.568Z,285.25
2019-05-05T00:53:53.042Z,289.98
2019-05-05T00:53:58.043Z,289.98
2019-05-05T00:54:03.044Z,286.90
2019-05-05T00:54:08.048Z,286.90
2019-05-05T00:54:13.046Z,284.42
2019-05-05T00:54:18.047Z,284.42
2019-05-05T00:54:23.125Z,288.64
2019-05-05T00:54:28.052Z,288.64
2019-05-05T00:54:33.051Z,292.21
2019-05-05T00:54:38.051Z,292.21
2019-05-05T00:54:43.053Z,292.25
2019-05-05T00:54:48.054Z,292.25
2019-05-05T00:54:53.055Z,289.40
2019-05-05T00:54:58.055Z,289.40
2019-05-05T00:55:03.057Z,286.96
2019-05-05T00:55:08.056Z,286.96
2019-05-05T00:55:13.058Z,284.86
2019-05-05T00:55:18.058Z,284.86
2019-05-05T00:55:23.060Z,288.43
2019-05-05T00:55:28.060Z,288.43
2019-05-05T00:55:33.063Z,291.57
2019-05-05T00:55:38.063Z,291.57
2019-05-05T00:55:43.062Z,289.03
2019-05-05T00:55:48.065Z,289.03
2019-05-05T00:55:53.070Z,286.81
2019-05-05T00:55:58.066Z,286.81
2019-05-05T00:56:03.069Z,284.86
2019-05-05T00:56:08.070Z,284.86
2019-05-05T00:56:13.071Z,288.23
2019-05-05T00:56:18.071Z,288.23
2019-05-05T00:56:23.072Z,291.23
2019-05-05T00:56:28.074Z,291.23
2019-05-05T00:56:33.075Z,293.89
2019-05-05T00:56:38.077Z,293.89
2019-05-05T00:56:43.076Z,296.26
2019-05-05T00:56:48.078Z,296.26
2019-05-05T00:56:53.077Z,298.34
2019-05-05T00:56:58.079Z,298.34
2019-05-05T00:57:03.079Z,300.19
2019-05-05T00:57:08.080Z,300.19
2019-05-05T00:57:13.080Z,296.95
2019-05-05T00:57:18.084Z,296.95
2019-05-05T00:57:23.082Z,294.03
2019-05-05T00:57:28.085Z,294.03
2019-05-05T00:57:33.085Z,291.42
2019-05-05T00:57:38.087Z,291.42
2019-05-05T00:57:43.087Z,289.09
2019-05-05T00:57:48.088Z,289.09
2019-05-05T00:57:53.090Z,291.87
2019-05-05T00:57:58.090Z,291.87
2019-05-05T00:58:03.090Z,291.94
2019-05-05T00:58:08.094Z,291.94
2019-05-05T00:58:13.093Z,294.40
2019-05-05T00:58:18.400Z,294.40
2019-05-05T00:58:23.094Z,291.81
2019-05-05T00:58:28.096Z,291.81
2019-05-05T00:58:33.097Z,289.48
2019-05-05T00:58:38.098Z,289.48
2019-05-05T00:58:43.099Z,282.61
2019-05-05T00:58:48.101Z,282.61
2019-05-05T00:58:53.100Z,281.13
2019-05-05T00:58:58.103Z,281.13
2019-05-05T00:59:03.103Z,279.85
2019-05-05T00:59:08.102Z,279.85
2019-05-05T00:59:13.103Z,278.73
2019-05-05T00:59:18.105Z,278.73
2019-05-05T00:59:23.106Z,277.75
2019-05-05T00:59:28.108Z,277.75
2019-05-05T00:59:33.444Z,276.89
2019-05-05T00:59:38.109Z,276.89
2019-05-05T00:59:43.109Z,280.87
2019-05-05T00:59:48.112Z,280.87
2019-05-05T00:59:53.111Z,279.67
2019-05-05T00:59:58.114Z,279.67
2019-05-05T01:00:03.148Z,278.61
2019-05-05T01:00:08.114Z,278.61
2019-05-05T01:00:13.114Z,277.67
2019-05-05T01:00:18.119Z,277.67
2019-05-05T01:00:23.120Z,276.84
2019-05-05T01:00:28.120Z,276.84
2019-05-05T01:00:33.118Z,276.11
2019-05-05T01:00:38.122Z,276.11
2019-05-05T01:00:43.121Z,275.46
2019-05-05T01:00:48.123Z,275.46
2019-05-05T01:00:53.124Z,274.88
2019-05-05T01:00:58.125Z,274.88
2019-05-05T01:01:03.179Z,274.36
2019-05-05T01:01:08.183Z,274.36
2019-05-05T01:01:13.180Z,273.91
2019-05-05T01:01:18.184Z,273.91
2019-05-05T01:01:23.184Z,273.50
2019-05-05T01:01:28.186Z,273.50
2019-05-05T01:01:33.187Z,273.13
2019-05-05T01:01:38.187Z,273.13
2019-05-05T01:01:43.187Z,272.81
2019-05-05T01:01:48.188Z,272.81
2019-05-05T01:01:53.189Z,272.52
2019-05-05T01:01:58.191Z,272.52
2019-05-05T01:02:03.192Z,272.26
2019-05-05T01:02:08.194Z,272.26
2019-05-05T01:02:13.197Z,272.03
2019-05-05T01:02:18.193Z,272.03
2019-05-05T01:02:23.194Z,271.82
2019-05-05T01:02:28.196Z,271.82
2019-05-05T01:02:33.198Z,271.63
2019-05-05T01:02:38.201Z,271.63
2019-05-05T01:02:43.198Z,275.75
2019-05-05T01:02:48.200Z,275.75
2019-05-05T01:02:53.202Z,275.15